Time;durP1;ratioP1;P1;durP2;ratioP2;P2;SDS_P1;SDS_P2;PMS_P1;PMS_P2;Temp;Humidity;BMP_temperature;BMP_pressure;BME280_temperature;BME280_humidity;BME280_pressure;Samples;Min_cycle;Max_cycle;Signal;HPM_P1;HPM_P2
2023/05/04 00:00:09;;;;;;;11.23;5.63;;;;;;;9.10;60.49;102178.03;4986755;28;20039;-71
2023/05/04 00:02:37;;;;;;;12.25;5.72;;;;;;;9.09;60.61;102171.00;4985932;28;20869;-72
2023/05/04 00:05:06;;;;;;;10.88;5.65;;;;;;;9.05;60.49;102170.13;4988081;28;20035;-71
2023/05/04 00:07:33;;;;;;;9.25;5.38;;;;;;;9.02;60.75;102176.25;4987889;28;20046;-71
2023/05/04 00:10:00;;;;;;;9.02;5.75;;;;;;;8.98;61.05;102171.00;4971146;28;20043;-71
2023/05/04 00:12:27;;;;;;;9.52;5.60;;;;;;;8.93;61.39;102160.50;4967986;28;20085;-71
2023/05/04 00:14:54;;;;;;;9.27;5.57;;;;;;;8.90;61.38;102167.53;4968181;28;20050;-71
2023/05/04 00:17:21;;;;;;;7.72;5.28;;;;;;;8.85;61.67;102155.25;4967878;28;20503;-71
2023/05/04 00:19:49;;;;;;;8.45;5.50;;;;;;;8.84;61.75;102160.53;4966627;28;20591;-71
2023/05/04 00:22:16;;;;;;;9.60;5.57;;;;;;;8.81;62.17;102147.38;4967195;28;20086;-71
2023/05/04 00:24:43;;;;;;;12.23;6.25;;;;;;;8.78;62.18;102153.53;4966173;28;20035;-71
2023/05/04 00:27:10;;;;;;;10.50;5.75;;;;;;;8.76;62.30;102155.28;4967268;28;20066;-71
2023/05/04 00:29:37;;;;;;;12.80;5.88;;;;;;;8.72;62.66;102150.91;4967976;28;20035;-70
2023/05/04 00:32:05;;;;;;;10.55;5.70;;;;;;;8.67;62.85;102145.66;4966814;28;20043;-71
2023/05/04 00:34:35;;;;;;;9.93;5.72;;;;;;;8.66;62.92;102138.66;4967242;28;20507;-71
2023/05/04 00:37:01;;;;;;;8.05;5.65;;;;;;;8.62;63.06;102129.00;4967465;28;20047;-71
2023/05/04 00:39:28;;;;;;;9.65;6.03;;;;;;;8.57;63.38;102128.16;4971687;28;20060;-71
2023/05/04 00:41:55;;;;;;;10.40;5.55;;;;;;;8.54;63.54;102128.16;4970620;28;20043;-70
2023/05/04 00:44:22;;;;;;;8.43;5.72;;;;;;;8.53;63.79;102132.53;4969904;28;20048;-71
2023/05/04 00:46:51;;;;;;;8.10;5.47;;;;;;;8.49;63.94;102132.56;4969764;28;20082;-70
2023/05/04 00:49:20;;;;;;;8.05;5.65;;;;;;;8.45;64.05;102128.13;4954074;28;20118;-71
2023/05/04 00:51:50;;;;;;;10.18;6.20;;;;;;;8.44;64.14;102124.63;4969991;28;21028;-71
2023/05/04 00:54:18;;;;;;;11.68;6.18;;;;;;;8.40;64.38;102123.75;4970308;28;20082;-70
2023/05/04 00:56:46;;;;;;;8.48;5.57;;;;;;;8.38;64.57;102117.63;4969488;28;20102;-70
2023/05/04 00:59:13;;;;;;;8.68;5.85;;;;;;;8.35;64.76;102115.00;4971678;28;20036;-71
2023/05/04 01:01:41;;;;;;;10.55;6.00;;;;;;;8.32;65.16;102115.00;4969574;28;20039;-71
2023/05/04 01:04:08;;;;;;;10.00;6.40;;;;;;;8.26;65.06;102104.50;4970545;28;20216;-70
2023/05/04 01:06:47;;;;;;;8.68;5.97;;;;;;;8.22;65.38;102108.00;4969513;28;20043;-70
2023/05/04 01:09:31;;;;;;;7.13;5.72;;;;;;;8.18;65.75;102116.75;4972227;28;20094;-71
2023/05/04 01:12:07;;;;;;;8.75;6.25;;;;;;;8.12;65.72;102103.59;4987124;28;20499;-71
2023/05/04 01:14:36;;;;;;;13.02;6.72;;;;;;;8.09;66.04;102104.50;4988413;28;20043;-71
2023/05/04 01:17:06;;;;;;;8.82;6.00;;;;;;;8.02;66.39;102098.34;4990352;28;20496;-71
2023/05/04 01:19:34;;;;;;;10.10;6.70;;;;;;;8.00;66.50;102097.47;4987852;28;20098;-71
2023/05/04 01:22:02;;;;;;;11.32;6.80;;;;;;;7.96;66.59;102097.47;4988252;28;20043;-71
2023/05/04 01:24:30;;;;;;;8.40;6.47;;;;;;;7.92;66.90;102097.50;4990032;28;20162;-71
2023/05/04 01:27:08;;;;;;;12.27;6.57;;;;;;;7.88;67.04;102092.25;4988642;28;20049;-70
2023/05/04 01:29:46;;;;;;;9.95;6.40;;;;;;;7.81;67.46;102091.34;4988088;28;20545;-70
2023/05/04 01:32:18;;;;;;;8.48;6.57;;;;;;;7.77;67.41;102093.09;4989287;28;20085;-71
2023/05/04 01:34:45;;;;;;;12.27;6.93;;;;;;;7.73;67.75;102093.09;4988945;28;20065;-71
2023/05/04 01:37:12;;;;;;;13.57;6.80;;;;;;;7.67;68.44;102088.72;4988217;28;20081;-70
2023/05/04 01:39:39;;;;;;;17.20;7.07;;;;;;;7.65;68.50;102093.06;4981422;28;20047;-71
2023/05/04 01:42:06;;;;;;;9.95;6.30;;;;;;;7.63;68.42;102093.94;4975857;28;20499;-71
2023/05/04 01:44:33;;;;;;;12.65;7.10;;;;;;;7.58;68.53;102091.31;4978672;28;20042;-71
2023/05/04 01:47:00;;;;;;;8.85;6.60;;;;;;;7.55;68.70;102091.31;4987531;28;20578;-71
2023/05/04 01:49:27;;;;;;;10.70;6.88;;;;;;;7.51;68.84;102092.16;4987798;28;20085;-71
2023/05/04 01:51:54;;;;;;;11.57;7.13;;;;;;;7.48;68.99;102092.16;4986755;28;20587;-70
2023/05/04 01:54:23;;;;;;;9.20;6.53;;;;;;;7.44;69.30;102094.78;4975293;28;20047;-70
2023/05/04 01:56:52;;;;;;;10.25;7.20;;;;;;;7.39;69.41;102100.88;4967743;28;20141;-71
2023/05/04 01:59:19;;;;;;;13.38;7.40;;;;;;;7.35;69.87;102083.38;4968526;28;20536;-70
2023/05/04 02:01:45;;;;;;;9.80;6.57;;;;;;;7.32;69.98;102084.22;4967941;28;20043;-71
2023/05/04 02:04:13;;;;;;;8.00;6.75;;;;;;;7.27;70.07;102091.22;4967780;28;20039;-71
2023/05/04 02:06:40;;;;;;;10.55;7.40;;;;;;;7.23;70.21;102086.84;4969015;28;20040;-71
2023/05/04 02:09:07;;;;;;;10.57;6.90;;;;;;;7.20;70.49;102084.19;4978156;28;20620;-71
2023/05/04 02:11:34;;;;;;;12.75;7.05;;;;;;;7.17;70.59;102087.69;4988311;28;20038;-71
2023/05/04 02:14:01;;;;;;;10.55;7.53;;;;;;;7.11;70.85;102088.53;4987592;28;20507;-70
2023/05/04 02:16:28;;;;;;;9.40;7.07;;;;;;;7.09;70.88;102084.16;4989186;28;20038;-70
2023/05/04 02:18:55;;;;;;;10.60;7.47;;;;;;;7.06;71.24;102078.91;4987081;28;20043;-71
2023/05/04 02:21:22;;;;;;;10.95;7.45;;;;;;;7.05;71.40;102082.38;4970924;28;20460;-71
2023/05/04 02:23:49;;;;;;;10.15;7.18;;;;;;;7.04;71.35;102083.25;4988706;28;20256;-70
2023/05/04 02:26:16;;;;;;;12.18;7.47;;;;;;;7.00;71.59;102087.59;4987703;28;20043;-71
2023/05/04 02:28:43;;;;;;;10.98;7.32;;;;;;;6.97;71.83;102084.97;4988238;28;20042;-71
2023/05/04 02:31:10;;;;;;;12.77;7.50;;;;;;;6.92;71.79;102081.47;4970861;28;20043;-71
2023/05/04 02:33:37;;;;;;;11.55;7.85;;;;;;;6.88;71.98;102075.31;4987026;28;20892;-71
2023/05/04 02:36:04;;;;;;;12.57;8.13;;;;;;;6.88;72.06;102075.31;4987210;28;20455;-70
2023/05/04 02:38:31;;;;;;;10.45;7.43;;;;;;;6.87;72.32;102080.56;4981794;28;20047;-70
2023/05/04 02:40:58;;;;;;;10.40;7.63;;;;;;;6.82;72.39;102078.78;4968459;28;20047;-71
2023/05/04 02:43:25;;;;;;;12.90;7.82;;;;;;;6.84;72.44;102065.69;4967580;28;20504;-71
2023/05/04 02:45:52;;;;;;;10.35;7.53;;;;;;;6.81;72.78;102071.78;4967641;28;20084;-71
2023/05/04 02:48:19;;;;;;;11.63;7.78;;;;;;;6.85;72.65;102070.06;4968809;28;20528;-71
2023/05/04 02:50:46;;;;;;;12.07;7.55;;;;;;;6.82;72.65;102070.03;4950098;28;20117;-71
2023/05/04 02:53:13;;;;;;;8.95;7.78;;;;;;;6.82;72.94;102067.41;4968641;28;21070;-71
2023/05/04 02:55:40;;;;;;;12.52;7.93;;;;;;;6.83;72.67;102067.44;4966564;28;20086;-71
2023/05/04 02:58:07;;;;;;;11.63;7.85;;;;;;;6.80;73.07;102071.78;4968157;28;20516;-71
2023/05/04 03:00:34;;;;;;;12.10;8.02;;;;;;;6.78;72.83;102074.38;4967485;28;20042;-70
2023/05/04 03:03:01;;;;;;;11.40;7.72;;;;;;;6.76;73.21;102073.53;4968349;28;20035;-71
2023/05/04 03:05:28;;;;;;;10.15;7.93;;;;;;;6.74;73.24;102067.41;4968560;28;20082;-71
2023/05/04 03:07:55;;;;;;;11.40;7.65;;;;;;;6.72;73.21;102076.09;4966882;28;20050;-71
2023/05/04 03:10:22;;;;;;;12.10;7.63;;;;;;;6.69;73.39;102066.47;4967033;28;20035;-71
2023/05/04 03:12:49;;;;;;;14.48;8.35;;;;;;;6.67;73.54;102068.22;4967111;28;20043;-71
2023/05/04 03:15:16;;;;;;;11.00;7.85;;;;;;;6.65;73.61;102072.59;4968102;28;21079;-71
2023/05/04 03:17:43;;;;;;;12.57;8.23;;;;;;;6.62;73.78;102075.19;4980261;28;20039;-71
2023/05/04 03:20:12;;;;;;;11.57;7.72;;;;;;;6.62;73.77;102073.44;4986671;28;20150;-71
2023/05/04 03:22:40;;;;;;;12.60;7.70;;;;;;;6.59;73.95;102067.28;4986449;28;20039;-70
2023/05/04 03:25:08;;;;;;;15.05;8.30;;;;;;;6.56;74.04;102059.44;4970412;28;20531;-71
2023/05/04 03:27:35;;;;;;;12.52;8.25;;;;;;;6.52;74.08;102056.78;4986094;28;20066;-71
2023/05/04 03:30:03;;;;;;;9.85;7.57;;;;;;;6.48;74.31;102052.38;4986305;28;20539;-71
2023/05/04 03:32:30;;;;;;;9.52;8.00;;;;;;;6.46;74.28;102053.25;4987268;28;20039;-71
2023/05/04 03:34:57;;;;;;;10.88;8.32;;;;;;;6.43;74.51;102053.22;4986780;28;20077;-71
2023/05/04 03:37:24;;;;;;;10.55;8.10;;;;;;;6.42;74.83;102048.84;4985722;28;20039;-71
2023/05/04 03:39:51;;;;;;;12.07;7.80;;;;;;;6.36;74.68;102044.44;4970418;28;20482;-71
2023/05/04 03:42:18;;;;;;;12.32;7.75;;;;;;;6.34;74.95;102044.44;4966001;28;20048;-71
2023/05/04 03:44:46;;;;;;;13.02;7.93;;;;;;;6.32;75.19;102045.31;4966416;28;20035;-70
2023/05/04 03:47:14;;;;;;;11.50;8.32;;;;;;;6.31;75.28;102043.56;4966683;28;20043;-70
2023/05/04 03:49:41;;;;;;;11.00;8.13;;;;;;;6.26;75.33;102043.53;4966645;28;20039;-70
2023/05/04 03:52:08;;;;;;;11.25;8.50;;;;;;;6.25;75.72;102048.75;4966289;28;20146;-70
2023/05/04 03:54:36;;;;;;;10.07;8.13;;;;;;;6.21;75.71;102040.88;4966244;28;20050;-70
2023/05/04 03:57:03;;;;;;;12.10;8.07;;;;;;;6.19;75.73;102046.97;4965460;28;20054;-71
2023/05/04 03:59:32;;;;;;;11.00;8.00;;;;;;;6.16;75.83;102045.19;4966064;28;20098;-71
2023/05/04 04:02:03;;;;;;;11.10;7.75;;;;;;;6.16;76.00;102044.31;4966691;28;20537;-71
2023/05/04 04:04:30;;;;;;;10.82;7.88;;;;;;;6.14;76.08;102044.31;4966156;28;20286;-70
2023/05/04 04:06:57;;;;;;;9.35;7.65;;;;;;;6.11;75.83;102031.19;4967544;28;20480;-71
2023/05/04 04:09:24;;;;;;;10.98;7.97;;;;;;;6.12;76.39;102034.69;4985919;28;20043;-71
2023/05/04 04:11:51;;;;;;;10.95;8.43;;;;;;;6.10;76.26;102037.28;4985496;28;20452;-71
2023/05/04 04:14:18;;;;;;;11.48;8.48;;;;;;;6.11;76.54;102030.31;4985759;28;20047;-70
2023/05/04 04:16:45;;;;;;;10.50;7.78;;;;;;;6.11;76.63;102031.19;4985707;28;20038;-71
2023/05/04 04:19:12;;;;;;;11.00;8.23;;;;;;;6.11;76.82;102028.56;4985452;28;20486;-71
2023/05/04 04:21:39;;;;;;;13.07;8.38;;;;;;;6.13;76.48;102031.19;4985285;28;20046;-71
2023/05/04 04:24:06;;;;;;;11.32;8.30;;;;;;;6.15;76.49;102027.75;4983818;28;20066;-70
2023/05/04 04:26:34;;;;;;;12.45;8.02;;;;;;;6.20;76.36;102027.78;4987393;28;20050;-71
2023/05/04 04:29:00;;;;;;;12.00;8.50;;;;;;;6.27;76.50;102024.31;4984176;28;20060;-71
2023/05/04 04:31:29;;;;;;;11.57;8.27;;;;;;;6.33;76.30;102023.50;4986513;28;20039;-70
2023/05/04 04:33:56;;;;;;;10.75;8.15;;;;;;;6.39;76.18;102031.38;4986451;28;20042;-71
2023/05/04 04:36:23;;;;;;;10.13;8.10;;;;;;;6.46;75.87;102032.28;4986970;28;20055;-71
2023/05/04 04:38:51;;;;;;;11.40;7.95;;;;;;;6.52;75.80;102029.69;4984411;28;20174;-71
2023/05/04 04:41:18;;;;;;;12.38;8.27;;;;;;;6.60;75.78;102032.38;4986377;28;20069;-71
2023/05/04 04:43:45;;;;;;;12.80;8.30;;;;;;;6.72;75.37;102029.81;4984603;28;20039;-70
2023/05/04 04:46:12;;;;;;;11.27;7.55;;;;;;;6.84;74.90;102027.25;4986649;28;20047;-70
2023/05/04 04:48:39;;;;;;;11.85;7.45;;;;;;;6.97;74.58;102020.31;4985688;28;20050;-71
2023/05/04 04:51:10;;;;;;;10.75;7.40;;;;;;;7.16;73.99;102017.75;4987031;28;20047;-71
2023/05/04 04:53:38;;;;;;;9.95;7.43;;;;;;;7.56;73.10;102015.19;4986602;28;20137;-71
2023/05/04 04:56:06;;;;;;;11.65;7.07;;;;;;;7.85;72.02;102023.97;4986758;28;20222;-71
2023/05/04 04:58:33;;;;;;;13.00;7.65;;;;;;;8.34;70.44;102017.78;4984320;28;20051;-70
2023/05/04 05:01:03;;;;;;;10.68;6.88;;;;;;;8.49;69.82;102012.50;4986032;28;20071;-71
2023/05/04 05:03:31;;;;;;;10.50;6.97;;;;;;;8.56;69.02;102016.00;4986309;28;20039;-71
2023/05/04 05:06:00;;;;;;;11.32;6.93;;;;;;;9.31;67.56;102022.66;4986710;28;20653;-71
2023/05/04 05:08:27;;;;;;;10.40;6.57;;;;;;;10.26;64.54;102008.75;4985767;28;20098;-71
2023/05/04 05:10:55;;;;;;;9.23;6.60;;;;;;;10.49;63.25;102007.63;4986475;28;20764;-71
2023/05/04 05:13:22;;;;;;;11.02;6.15;;;;;;;10.36;63.40;102007.75;4968086;28;20054;-70
2023/05/04 05:15:49;;;;;;;9.60;5.55;;;;;;;10.44;63.19;102009.47;4986043;28;20151;-70
2023/05/04 05:18:16;;;;;;;7.40;5.72;;;;;;;10.51;62.38;102005.84;4985916;28;20046;-71
2023/05/04 05:20:43;;;;;;;8.30;5.40;;;;;;;10.91;61.29;102004.50;4985112;28;20083;-70
2023/05/04 05:23:10;;;;;;;7.07;5.05;;;;;;;11.02;60.56;102006.09;4986598;28;20031;-71
2023/05/04 05:25:37;;;;;;;8.10;5.63;;;;;;;11.24;60.22;102008.44;4987135;28;20118;-71
2023/05/04 05:28:06;;;;;;;7.32;5.00;;;;;;;11.42;59.39;102006.41;4988645;28;20046;-71
2023/05/04 05:30:33;;;;;;;9.35;5.20;;;;;;;11.70;58.55;102006.84;4988896;28;20042;-70
2023/05/04 05:33:00;;;;;;;8.13;5.75;;;;;;;11.78;58.19;101997.03;4971302;28;20579;-71
2023/05/04 05:35:27;;;;;;;10.05;5.07;;;;;;;11.72;58.01;101997.13;4968449;28;20217;-70
2023/05/04 05:37:54;;;;;;;9.27;4.80;;;;;;;11.81;57.86;102002.28;4968333;28;20066;-71
2023/05/04 05:40:21;;;;;;;7.85;5.22;;;;;;;11.80;57.90;102005.81;4969486;28;20574;-71
2023/05/04 05:42:49;;;;;;;8.38;5.35;;;;;;;11.73;57.91;102006.81;4969624;28;20055;-71
2023/05/04 05:45:16;;;;;;;10.50;5.30;;;;;;;11.78;58.25;102004.09;4967313;28;20051;-71
2023/05/04 05:47:42;;;;;;;8.32;5.10;;;;;;;11.74;58.13;101994.47;4970013;28;20589;-70
2023/05/04 05:50:12;;;;;;;7.13;4.85;;;;;;;11.74;57.74;102011.19;4969068;28;20616;-71
2023/05/04 05:52:39;;;;;;;6.85;4.85;;;;;;;11.46;58.34;102001.06;4967797;28;20055;-71
2023/05/04 05:55:07;;;;;;;9.48;5.15;;;;;;;11.10;59.75;102000.72;4969186;28;20066;-71
2023/05/04 05:57:34;;;;;;;8.80;4.88;;;;;;;10.87;60.59;102007.16;4969056;28;20562;-71
2023/05/04 06:00:01;;;;;;;8.07;5.10;;;;;;;10.72;61.11;102012.66;4967882;28;20614;-71
2023/05/04 06:02:38;;;;;;;9.98;4.85;;;;;;;10.63;61.55;102007.50;4968942;28;20054;-71
2023/05/04 06:05:05;;;;;;;8.63;5.55;;;;;;;10.60;62.04;101997.84;4969283;28;20127;-71
2023/05/04 06:07:32;;;;;;;7.30;5.25;;;;;;;10.60;62.30;101999.59;4968838;28;20416;-71
2023/05/04 06:09:59;;;;;;;9.23;5.05;;;;;;;10.70;62.01;101988.91;4969596;28;20122;-71
2023/05/04 06:12:27;;;;;;;8.18;5.20;;;;;;;10.80;61.56;101988.78;4969122;28;20697;-70
2023/05/04 06:14:54;;;;;;;9.93;4.85;;;;;;;10.83;61.61;101983.50;4967117;28;20047;-70
2023/05/04 06:17:21;;;;;;;8.00;4.57;;;;;;;10.92;61.49;101988.66;4967679;28;20050;-71
2023/05/04 06:19:49;;;;;;;6.90;4.72;;;;;;;11.01;60.97;101982.38;4968154;28;20067;-71
2023/05/04 06:22:17;;;;;;;8.18;5.28;;;;;;;11.05;60.94;101981.41;4968961;28;20139;-71
2023/05/04 06:24:43;;;;;;;9.90;4.75;;;;;;;11.15;61.29;101975.13;4968897;28;20118;-71
2023/05/04 06:27:10;;;;;;;7.20;5.10;;;;;;;11.30;61.28;101975.81;4969454;28;20150;-71
2023/05/04 06:29:39;;;;;;;9.88;4.80;;;;;;;11.45;60.52;101977.31;4968672;28;20040;-71
2023/05/04 06:32:09;;;;;;;8.35;5.10;;;;;;;11.57;60.59;101971.84;4969991;28;20040;-71
2023/05/04 06:34:36;;;;;;;9.18;5.10;;;;;;;11.66;60.55;101970.81;4969201;28;20702;-71
2023/05/04 06:37:03;;;;;;;7.03;4.05;;;;;;;11.77;59.98;101973.28;4968066;28;20065;-71
2023/05/04 06:39:30;;;;;;;9.05;4.35;;;;;;;11.89;59.23;101974.84;4967805;28;20522;-71
2023/05/04 06:41:57;;;;;;;8.25;4.95;;;;;;;11.88;59.17;101973.09;4968678;28;20040;-71
2023/05/04 06:44:26;;;;;;;9.57;4.93;;;;;;;11.91;59.27;101968.63;4951269;28;20039;-71
2023/05/04 06:46:53;;;;;;;8.07;5.00;;;;;;;11.95;58.76;101969.47;4968292;28;20500;-71
2023/05/04 06:49:20;;;;;;;9.95;4.65;;;;;;;11.93;59.11;101969.47;4968547;28;20054;-71
2023/05/04 06:51:47;;;;;;;9.25;4.60;;;;;;;11.97;58.93;101970.28;4966643;28;20057;-71
2023/05/04 06:54:14;;;;;;;11.73;4.82;;;;;;;12.03;58.96;101967.56;4968158;28;20047;-71
2023/05/04 06:56:42;;;;;;;6.07;4.38;;;;;;;12.09;59.30;101962.16;4968346;28;20051;-71
2023/05/04 06:59:09;;;;;;;9.18;5.10;;;;;;;12.24;59.10;101958.34;4967366;28;20948;-71
2023/05/04 07:01:36;;;;;;;9.07;5.05;;;;;;;12.35;59.11;101952.88;4972153;28;20047;-71
2023/05/04 07:04:04;;;;;;;12.23;5.03;;;;;;;12.51;58.59;101958.72;4988001;28;20047;-70
2023/05/04 07:06:31;;;;;;;10.77;4.80;;;;;;;12.64;58.91;101956.69;4970403;28;20043;-70
2023/05/04 07:08:58;;;;;;;9.05;5.03;;;;;;;12.83;57.92;101953.63;4987438;28;20102;-71
2023/05/04 07:11:26;;;;;;;8.40;4.90;;;;;;;12.94;57.71;101942.78;4987267;28;20460;-71
2023/05/04 07:13:54;;;;;;;7.95;4.43;;;;;;;13.05;57.11;101944.31;4970154;28;20519;-71
2023/05/04 07:16:21;;;;;;;6.75;4.25;;;;;;;13.12;56.42;101941.50;4985885;28;20043;-71
2023/05/04 07:18:48;;;;;;;5.90;4.40;;;;;;;13.19;56.91;101948.41;4986298;28;20101;-71
2023/05/04 07:21:15;;;;;;;10.73;4.43;;;;;;;13.29;56.26;101941.97;4986707;28;20039;-71
2023/05/04 07:23:55;;;;;;;6.97;4.30;;;;;;;13.39;56.27;101934.72;4987193;28;20138;-71
2023/05/04 07:26:22;;;;;;;8.15;4.47;;;;;;;13.52;56.23;101937.94;4987824;28;20471;-71
2023/05/04 07:28:49;;;;;;;7.53;4.50;;;;;;;13.62;56.75;101927.97;4987767;28;20047;-71
2023/05/04 07:31:16;;;;;;;7.28;4.30;;;;;;;13.75;55.45;101925.88;4982053;28;20078;-70
2023/05/04 07:33:43;;;;;;;8.38;4.22;;;;;;;13.85;55.44;101922.06;4967999;28;20081;-71
2023/05/04 07:36:10;;;;;;;7.88;4.60;;;;;;;13.92;55.51;101931.59;4967859;28;20075;-71
2023/05/04 07:38:37;;;;;;;9.27;4.55;;;;;;;14.06;55.77;101917.09;4967518;28;20057;-71
2023/05/04 07:41:06;;;;;;;7.45;4.65;;;;;;;14.14;54.94;101918.59;4967985;28;20621;-70
2023/05/04 07:43:33;;;;;;;6.30;4.35;;;;;;;14.27;54.70;101912.94;4968101;28;20043;-70
2023/05/04 07:46:00;;;;;;;8.18;4.20;;;;;;;14.37;53.41;101910.91;4966721;28;20050;-71
2023/05/04 07:48:27;;;;;;;8.45;3.92;;;;;;;14.40;54.11;101909.03;4965951;28;20483;-71
2023/05/04 07:50:54;;;;;;;7.15;4.35;;;;;;;14.47;54.13;101907.06;4968893;28;20634;-70
2023/05/04 07:53:24;;;;;;;8.23;4.10;;;;;;;14.59;53.71;101912.03;4967958;28;20047;-71
2023/05/04 07:55:53;;;;;;;8.43;4.35;;;;;;;14.69;54.10;101901.16;4967778;28;20051;-71
2023/05/04 07:58:20;;;;;;;11.98;4.50;;;;;;;14.83;53.36;101898.06;4967437;28;20047;-71
2023/05/04 08:00:47;;;;;;;7.38;4.32;;;;;;;14.94;53.15;101901.25;4965810;28;20039;-71
2023/05/04 08:03:14;;;;;;;5.88;4.35;;;;;;;15.10;53.49;101904.28;4967391;28;20878;-71
2023/05/04 08:05:41;;;;;;;10.50;4.28;;;;;;;15.30;53.42;101903.63;4967219;28;20042;-71
2023/05/04 08:08:08;;;;;;;9.10;4.00;;;;;;;15.56;52.31;101898.34;4966097;28;20047;-71
2023/05/04 08:10:37;;;;;;;8.38;4.25;;;;;;;15.73;51.39;101900.41;4966835;28;20078;-71
2023/05/04 08:13:04;;;;;;;8.02;4.13;;;;;;;15.87;51.44;101902.63;4967371;28;20044;-71
2023/05/04 08:15:31;;;;;;;7.75;4.18;;;;;;;16.00;51.47;101895.94;4967074;28;20055;-71
2023/05/04 08:17:58;;;;;;;9.73;4.18;;;;;;;16.18;51.26;101893.50;4967066;28;20055;-71
2023/05/04 08:20:25;;;;;;;13.93;3.85;;;;;;;16.37;51.82;101888.38;4966407;28;20036;-71
2023/05/04 08:22:53;;;;;;;7.30;3.60;;;;;;;16.52;50.21;101885.13;4967374;28;20132;-71
2023/05/04 08:25:21;;;;;;;8.18;3.80;;;;;;;16.60;47.89;101880.34;4965779;28;20044;-71
2023/05/04 08:27:48;;;;;;;6.38;3.50;;;;;;;16.55;48.02;101874.34;4966649;28;20047;-70
2023/05/04 08:30:16;;;;;;;6.63;3.60;;;;;;;16.61;48.36;101871.44;4966843;28;20221;-70
2023/05/04 08:32:43;;;;;;;7.05;3.72;;;;;;;16.73;48.12;101877.22;4956297;28;20039;-71
2023/05/04 08:35:10;;;;;;;7.07;4.03;;;;;;;16.81;47.85;101877.78;4985199;28;20136;-71
2023/05/04 08:37:37;;;;;;;11.93;3.88;;;;;;;16.90;48.46;101879.22;4986948;28;20487;-71
2023/05/04 08:40:05;;;;;;;6.72;3.88;;;;;;;17.03;46.12;101872.50;4986243;28;20055;-71
2023/05/04 08:42:33;;;;;;;10.15;3.90;;;;;;;17.05;46.76;101869.75;4986568;28;20035;-71
2023/05/04 08:45:00;;;;;;;6.72;3.83;;;;;;;17.16;46.35;101864.84;4969250;28;20077;-71
2023/05/04 08:47:27;;;;;;;8.77;3.88;;;;;;;17.25;46.89;101870.72;4986288;28;20042;-71
2023/05/04 08:49:55;;;;;;;7.30;3.55;;;;;;;17.39;46.24;101868.34;4986759;28;20034;-71
2023/05/04 08:52:24;;;;;;;8.40;3.58;;;;;;;17.55;44.76;101871.19;4986119;28;20113;-71
2023/05/04 08:54:57;;;;;;;7.50;3.97;;;;;;;17.58;44.59;101862.22;4986086;28;20923;-70
2023/05/04 08:57:25;;;;;;;8.55;3.88;;;;;;;17.61;44.75;101854.94;4985272;28;20046;-71
2023/05/04 08:59:54;;;;;;;6.40;3.97;;;;;;;17.71;45.28;101852.72;4987635;28;20072;-71
2023/05/04 09:02:23;;;;;;;7.82;4.00;;;;;;;17.89;44.69;101861.69;4972080;28;20134;-71
2023/05/04 09:04:52;;;;;;;15.93;4.35;;;;;;;17.99;44.38;101847.06;4970189;28;20126;-71
2023/05/04 09:07:20;;;;;;;7.45;3.80;;;;;;;18.09;43.83;101847.50;4970191;28;20058;-70
2023/05/04 09:09:51;;;;;;;5.93;3.72;;;;;;;18.18;45.17;101848.00;4969877;28;20043;-71
2023/05/04 09:12:18;;;;;;;8.23;4.15;;;;;;;18.36;44.82;101852.47;4968815;28;20039;-70
2023/05/04 09:14:45;;;;;;;11.07;4.03;;;;;;;18.55;44.81;101856.94;4970023;28;20044;-71
2023/05/04 09:17:24;;;;;;;7.43;3.65;;;;;;;18.71;43.89;101847.28;4967760;28;20044;-70
2023/05/04 09:20:02;;;;;;;11.43;4.45;;;;;;;18.87;44.06;101834.00;4970069;28;20043;-71
2023/05/04 09:22:30;;;;;;;8.50;3.90;;;;;;;19.05;43.04;101832.25;4968515;28;20039;-71
2023/05/04 09:25:12;;;;;;;5.65;3.67;;;;;;;19.21;42.14;101837.69;4968658;28;20048;-70
2023/05/04 09:27:41;;;;;;;8.68;4.13;;;;;;;19.36;42.19;101835.16;4968796;28;20039;-70
2023/05/04 09:30:11;;;;;;;8.32;3.97;;;;;;;19.46;41.19;101819.50;4968426;28;20118;-70
2023/05/04 09:32:45;;;;;;;6.63;4.15;;;;;;;19.54;41.05;101822.63;4983921;28;20162;-71
2023/05/04 09:35:15;;;;;;;10.50;3.80;;;;;;;19.53;41.53;101827.13;4968342;28;20103;-71
2023/05/04 09:37:58;;;;;;;8.20;4.57;;;;;;;19.49;41.85;101812.19;4969670;28;20032;-71
2023/05/04 09:40:36;;;;;;;8.13;4.20;;;;;;;19.59;41.88;101809.00;4968410;28;20043;-70
2023/05/04 09:43:03;;;;;;;6.05;3.92;;;;;;;19.69;41.32;101810.25;4969448;28;20126;-71
2023/05/04 09:45:47;;;;;;;6.95;4.15;;;;;;;19.77;42.10;101808.06;4969386;28;20079;-71
2023/05/04 09:48:19;;;;;;;7.57;4.22;;;;;;;19.89;41.37;101801.19;4969369;28;20629;-70
2023/05/04 09:50:50;;;;;;;7.57;4.15;;;;;;;19.99;42.33;101802.41;4968481;28;20070;-70
2023/05/04 09:53:23;;;;;;;10.80;4.18;;;;;;;20.00;40.36;101798.78;4969516;28;20051;-70
2023/05/04 09:56:02;;;;;;;9.13;3.90;;;;;;;20.03;40.42;101803.09;4969580;28;20046;-70
2023/05/04 09:58:33;;;;;;;8.95;4.38;;;;;;;20.11;41.55;101794.66;4968538;28;20050;-71
2023/05/04 10:01:00;;;;;;;9.80;5.07;;;;;;;20.31;41.83;101801.56;4968986;28;20039;-71
2023/05/04 10:03:28;;;;;;;7.57;4.30;;;;;;;20.49;41.40;101794.31;4969649;28;20531;-71
2023/05/04 10:05:59;;;;;;;11.38;4.78;;;;;;;20.58;40.83;101799.13;4968228;28;20066;-71
2023/05/04 10:08:27;;;;;;;6.88;4.85;;;;;;;20.67;40.77;101791.50;4969415;28;20460;-71
2023/05/04 10:10:56;;;;;;;11.27;4.82;;;;;;;20.67;39.78;101792.38;4967417;28;20047;-71
2023/05/04 10:13:24;;;;;;;7.45;4.55;;;;;;;20.69;41.26;101787.81;4968587;28;20042;-71
2023/05/04 10:16:00;;;;;;;10.60;5.30;;;;;;;20.83;40.07;101775.44;4967389;28;20039;-71
2023/05/04 10:18:52;;;;;;;11.57;4.75;;;;;;;20.87;40.68;101782.34;4968016;28;20489;-71
2023/05/04 10:21:27;;;;;;;13.98;5.95;;;;;;;20.98;41.53;101781.69;4967841;28;20065;-71
2023/05/04 10:24:13;;;;;;;10.63;5.00;;;;;;;21.18;40.33;101775.16;4968900;28;20039;-71
2023/05/04 10:27:04;;;;;;;12.57;5.13;;;;;;;21.19;40.98;101768.84;4969094;28;20754;-70
2023/05/04 10:29:33;;;;;;;9.73;5.32;;;;;;;21.24;40.25;101766.72;4968931;28;20046;-71
2023/05/04 10:32:00;;;;;;;13.35;5.10;;;;;;;21.32;41.41;101758.22;4974425;28;20131;-70
2023/05/04 10:34:32;;;;;;;10.77;5.20;;;;;;;21.51;40.19;101753.44;4987526;28;20047;-72
2023/05/04 10:37:02;;;;;;;10.48;5.40;;;;;;;21.61;39.54;101751.09;4987270;28;20090;-72
2023/05/04 10:39:34;;;;;;;12.55;5.13;;;;;;;21.58;39.74;101740.50;4987139;28;20598;-72
2023/05/04 10:42:04;;;;;;;10.68;5.18;;;;;;;21.49;39.23;101733.03;4988716;28;20879;-71
2023/05/04 10:44:54;;;;;;;10.05;4.97;;;;;;;21.43;39.17;101728.91;4986695;28;20042;-71
2023/05/04 10:47:33;;;;;;;9.32;5.60;;;;;;;21.54;38.71;101722.88;4988111;28;20039;-70
2023/05/04 10:50:14;;;;;;;11.48;5.63;;;;;;;21.67;39.91;101717.66;4987189;28;20061;-70
2023/05/04 10:52:55;;;;;;;30.13;7.70;;;;;;;21.85;39.04;101719.16;4986976;28;20053;-71
2023/05/04 10:55:25;;;;;;;;;;;;;;;21.95;37.73;101707.81;4988899;28;20143;-71
2023/05/04 10:57:55;;;;;;;11.40;5.60;;;;;;;22.01;38.38;101710.97;4986708;28;20377;-71
2023/05/04 11:00:39;;;;;;;7.40;4.70;;;;;;;22.07;36.08;101688.22;4987842;28;20045;-71
2023/05/04 11:03:06;;;;;;;9.63;4.97;;;;;;;22.07;36.01;101695.41;4985489;28;20594;-70
2023/05/04 11:05:47;;;;;;;11.07;5.13;;;;;;;22.12;37.04;101696.81;4987973;28;20047;-71
2023/05/04 11:08:23;;;;;;;12.30;5.38;;;;;;;22.17;35.84;101686.66;4987914;28;20046;-70
2023/05/04 11:11:08;;;;;;;5.95;4.30;;;;;;;22.16;35.92;101684.06;4988302;28;20034;-70
2023/05/04 11:13:45;;;;;;;9.23;4.72;;;;;;;22.18;35.72;101682.97;4986949;28;20034;-70
2023/05/04 11:16:21;;;;;;;8.10;4.35;;;;;;;22.22;35.58;101672.03;4986502;28;20093;-70
2023/05/04 11:18:48;;;;;;;8.80;4.85;;;;;;;22.30;35.75;101665.22;4987554;28;20121;-70
2023/05/04 11:21:27;;;;;;;29.60;7.22;;;;;;;22.40;35.39;101654.72;4986676;28;20039;-70
2023/05/04 11:23:59;;;;;;;8.10;4.88;;;;;;;22.54;35.90;101655.63;4970291;28;20039;-70
2023/05/04 11:26:27;;;;;;;11.32;5.00;;;;;;;22.65;35.84;101645.00;4987689;28;20782;-71
2023/05/04 11:28:54;;;;;;;10.23;5.43;;;;;;;22.81;34.19;101639.41;4988138;28;20521;-70
2023/05/04 11:31:21;;;;;;;11.30;4.93;;;;;;;22.80;34.58;101633.16;4987141;28;20063;-70